メインページ
METAR-TAF:

METAR-TAF

空港 :

セントジョンズ, ニューファンドランド・ラブラドール州, カナダ

セントジョンズ国際空港

緯度: 47-37N, 経度: 052-44W, 海抜: 134m

現時点の気象観測

当レポートは23分前の01:12(UTC)に作成
北/北東の風 6kt
気温 -1°C
湿度 93%
気圧 1009 hPa
視程: 0.8km
高度200ftの曇り
着氷性の霧

METAR: CYYT 240112Z 03006KT 1/2SM R11/P6000FT/N R16/P6000FT/N FZFG OVC002 M01/M02 A2981 RMK FG6SF2 CIG ESTD SLP103

時間: 23:05 (01:35 UTC)

予報

当レポートは1時間53分前の23:42(UTC)に作成
予報は24日の 00時(UTC)から 24日の 24時(UTC)まで有効
変向風 3kt
高度300ftの曇り
小雪, 靄
24日の 00時(UTC)から 24日の 03時(UTC)まで一時的に
視程: 3.2km
高度400ftの曇り
24日の 0300時(UTC)から
西/北西の風 5kt
視程: 3.2km
高度300ftの曇り
24日の 03時(UTC)から 24日の 06時(UTC)まで一時的に
視程: 9.7km
高度400ftの曇り
小雪, 靄
24日の 0600時(UTC)から
西の風 5kt
視程: 4.8km
高度600ftの曇り
24日の 1100時(UTC)から
西の風 8kt
視程: 10km
高度600ftの雲は散在している
高度1000ftの千切れ雲あり
24日の 1600時(UTC)から
西/南西の風 15kt、最大25ktの突風を伴う
視程: 10km
高度3000ftの雲はほとんどない

TAF: CYYT 232342Z 2400/2424 VRB03KT 11/2SM -SN BR OVC003 TEMPO 2400/2403 2SM BR OVC004 FM240300 30005KT 2SM BR OVC003 TEMPO 2403/2406 6SM -SN BR OVC004 FM240600 27005KT 3SM BR OVC006 FM241100 26008KT P6SM SCT006 BKN010 FM241600 25015G25KT P6SM FEW030 RMK NXT FCST BY 240600Z

4,000以上の空港の気象観測と天気予報(METAR報とTAF報)

利用可能な観測所は地図上に黄色い丸と赤い丸で示す。

丸の上にカーソルを重ねると観測所名を参照できる。

次にクリックすると気象観測と天気予報を参照できる。

マップの切り替え:黒色「×」印の緑ボタンをクリックして拡大、「-」印の緑ボタンをクリックして縮小、緑色の三角印をクリックして隣りの地図に切り替え


METAR-TAF: